METAR Data
IDs: Format: Raw Decoded Include TAF

Data at: 0356 UTC 22 Mar 2019

KEMT 220245Z 25005KT 10SM SCT023 BKN048 BKN060 14/08 A3013
No TAF found for KEMT

KPOC 220347Z 23007KT 10SM FEW023 SCT043 BKN070 10/08 A3013
No TAF found for KPOC

KFUL 220353Z AUTO 00000KT 10SM CLR 13/08 A3013 RMK AO2 SLP202 T01280083
No TAF found for KFUL

KBUR 220353Z 26003KT 10SM CLR 12/06 A3012 RMK AO2 SLP193 T01170061

KBUR 220254Z 2203/2224 15008KT P6SM VCSH BKN040
  FM220600 VRB03KT P6SM SCT020
  FM222100 18008KT P6SM BKN250


KONT 220353Z 22007KT 10SM FEW019 BKN030 BKN060 13/09 A3012 RMK AO2 SLP197 T01330089

KONT 220332Z 2204/2306 VRB05KT P6SM VCSH SCT025 BKN050
  TEMPO 2204/2206 BKN025
  FM221000 VRB03KT P6SM SCT035
  FM222100 25008KT P6SM SCT030
  FM230400 VRB04KT P6SM SCT035


KCNO 220353Z 23005KT 10SM CLR 09/08 A3014 RMK AO2 SLP206 LAST T00940083
No TAF found for KCNO

KLGB 220353Z 30004KT 10SM CLR 13/08 A3013 RMK AO2 SLP203 T01330083

KLGB 212336Z 2200/2224 17009KT P6SM VCSH SCT025 BKN050
  FM220300 27008KT P6SM SCT050
  FM220900 VRB03KT P6SM BKN025
  FM221700 VRB03KT P6SM BKN035
  FM222000 20007KT P6SM BKN050
  FM222200 24010KT P6SM BKN250


KLAX 220353Z 29010KT 10SM FEW020 14/08 A3013 RMK AO2 SLP202 T01390078

KLAX 220232Z 2203/2306 26012KT P6SM SCT030
  FM221200 VRB03KT P6SM BKN025
  FM221700 16005KT P6SM SCT030
  FM222100 26012KT P6SM SCT050
  FM230300 27010KT P6SM BKN250


KCMA 220255Z 27008KT 10SM SCT048 13/08 A3012 RMK AO2 SLP207 T01280083 53006

KCMA 212336Z 2200/2224 26010G20KT P6SM VCSH BKN040
  FM220300 26005KT P6SM SCT040
  FM220800 VRB03KT P6SM SCT030
  FM222000 25010KT P6SM BKN250


KOXR 220351Z AUTO 29008KT 10SM FEW016 12/09 A3012 RMK AO2 SLP201 T01220089

KOXR 212336Z 2200/2224 27014KT P6SM VCSH BKN050
  FM220300 27008KT P6SM SCT050
  FM220800 VRB03KT P6SM SCT120
  FM221900 25006KT P6SM BKN250
  FM222100 26010KT P6SM BKN250